Breckenridge, TX

10:37 AM CDT on May 22, 2017 (GMT -0500)
Stephens County

Weather History for KBKD - April, 2014

Change the Weather History Date:

Thursday, April 3, 2014

  Actual Average (KMWL) Record (KMWL)
Temperature  
Mean Temperature 77 °F -  
Max Temperature 94 °F 71 °F 93 °F (2011)
Min Temperature 60 °F 49 °F 34 °F (2009)
Cooling Degree Days 12    
Growing Degree Days 27 (Base 50)    
Moisture  
Dew Point 48 °F    
Average Humidity 45    
Maximum Humidity 92    
Minimum Humidity 9    
Precipitation  
Precipitation 0.00 in - - ()
Sea Level Pressure  
Sea Level Pressure 29.69 in    
Wind  
Wind Speed 15 mph (WSW)    
Max Wind Speed 25 mph    
Max Gust Speed 36 mph    
Visibility 9 miles    
Events      
Averages and records for this station are not official NWS values.
T = Trace of Precipitation, MM = Missing Value Source: NWS Daily Summary

Daily Weather History Graph

Daily Weather History Graph

Search for Another Location

Airport or City:

Trip Planner

Search our weather history database for the weather conditions in past years. The results will help you decide how hot, cold, wet, or windy it might be!

Date:

Astronomy

Apr. 03, 2014 Rise Set
Actual Time 7:20 AM CDT 7:57 PM CDT
Civil Twilight 6:56 AM CDT 8:21 PM CDT
Nautical Twilight 6:26 AM CDT 8:51 PM CDT
Astronomical Twilight 5:57 AM CDT 9:21 PM CDT
Moon 10:01 AM CDT (4/3) No Moon Set
Length of Visible Light 13h 25m
Length of Day
12h 36m
Waxing Crescent, 17% of the Moon is Illuminated
Apr 3
Waxing Crescent
Apr 7
First Quarter
Apr 15
Full
Apr 22
Last Quarter
Apr 29
New

Hourly Weather History & Observations

Time (CDT) Temp. Heat Index Dew Point Humidity Pressure Visibility Wind Dir Wind Speed Gust Speed Precip Events Conditions
12:15 AM 74.7 °F - 63.5 °F 68% 29.66 in 10.0 mi SSE 17.3 mph 24.2 mph N/A   Clear
12:35 AM 74.7 °F - 63.5 °F 68% 29.65 in 10.0 mi SSE 17.3 mph 23.0 mph N/A   Clear
12:55 AM 74.3 °F - 63.5 °F 69% 29.65 in 10.0 mi SSE 19.6 mph 25.3 mph N/A   Clear
1:15 AM 73.8 °F - 63.7 °F 71% 29.65 in 10.0 mi SSE 16.1 mph 23.0 mph N/A   Clear
1:35 AM 73.4 °F - 64.0 °F 72% 29.65 in 10.0 mi SSE 12.7 mph 24.2 mph N/A   Clear
1:55 AM 73.4 °F - 64.4 °F 73% 29.65 in 10.0 mi South 15.0 mph 23.0 mph N/A   Clear
2:15 AM 73.4 °F - 64.8 °F 74% 29.65 in 10.0 mi South 12.7 mph 18.4 mph N/A   Clear
2:35 AM 73.6 °F - 65.1 °F 75% 29.65 in 10.0 mi South 13.8 mph 21.9 mph N/A   Clear
2:55 AM 72.9 °F - 65.3 °F 77% 29.65 in 10.0 mi South 12.7 mph 23.0 mph N/A   Mostly Cloudy
3:15 AM 72.7 °F - 65.5 °F 78% 29.66 in 10.0 mi South 12.7 mph 19.6 mph N/A   Scattered Clouds
3:35 AM 73.0 °F - 65.7 °F 78% 29.66 in 10.0 mi SSW 12.7 mph - N/A   Clear
3:55 AM 73.4 °F - 65.8 °F 77% 29.65 in 10.0 mi SSW 15.0 mph 23.0 mph N/A   Clear
4:15 AM 73.0 °F - 65.7 °F 78% 29.66 in 10.0 mi SSW 16.1 mph 20.7 mph N/A   Clear
4:35 AM 73.4 °F - 65.7 °F 77% 29.66 in 10.0 mi SSW 15.0 mph 23.0 mph N/A   Clear
4:55 AM 72.9 °F - 65.8 °F 79% 29.66 in 10.0 mi SSW 16.1 mph 21.9 mph N/A   Clear
5:15 AM 72.7 °F - 66.0 °F 80% 29.66 in 10.0 mi SSW 10.4 mph 19.6 mph N/A   Clear
5:35 AM 72.1 °F - 66.0 °F 81% 29.66 in 10.0 mi South 13.8 mph 18.4 mph N/A   Clear
5:55 AM 71.8 °F - 66.2 °F 83% 29.66 in 10.0 mi South 12.7 mph - N/A   Clear
6:15 AM 71.6 °F - 66.2 °F 83% 29.67 in 10.0 mi SSW 12.7 mph - N/A   Scattered Clouds
6:35 AM 71.1 °F - 66.7 °F 86% 29.68 in 7.0 mi SSW 10.4 mph - N/A   Clear
7:15 AM 70.3 °F - 68.0 °F 92% 29.68 in 7.0 mi South 11.5 mph - N/A   Clear
7:35 AM 70.5 °F - 68.0 °F 92% 29.68 in 7.0 mi South 11.5 mph - N/A   Clear
7:55 AM 70.5 °F - 68.0 °F 92% 29.69 in 7.0 mi South 12.7 mph - N/A   Clear
8:15 AM 70.7 °F - 68.0 °F 91% 29.69 in 7.0 mi South 11.5 mph - N/A   Clear
8:35 AM 70.9 °F - 68.0 °F 91% 29.69 in 7.0 mi South 11.5 mph - N/A   Clear
8:55 AM 72.9 °F - 68.2 °F 85% 29.70 in 7.0 mi SSW 12.7 mph 16.1 mph N/A   Clear
9:15 AM 74.3 °F - 66.4 °F 76% 29.71 in 7.0 mi SSW 15.0 mph - N/A   Clear
9:35 AM 76.3 °F - 66.4 °F 71% 29.71 in 7.0 mi SSW 17.3 mph - N/A   Clear
9:55 AM 78.4 °F - 66.4 °F 66% 29.71 in 7.0 mi SW 12.7 mph 23.0 mph N/A   Clear
10:15 AM 80.1 °F 81.8 °F 64.4 °F 59% 29.71 in 7.0 mi SW 13.8 mph - N/A   Clear
10:35 AM 80.1 °F 81.5 °F 63.1 °F 56% 29.71 in 10.0 mi SW 15.0 mph - N/A   Clear
10:55 AM 82.6 °F 83.4 °F 62.1 °F 50% 29.71 in 10.0 mi West 13.8 mph - N/A   Clear
11:15 AM 83.7 °F - 52.2 °F 34% 29.71 in 10.0 mi West 12.7 mph 19.6 mph N/A   Clear
11:35 AM 83.8 °F - 52.5 °F 34% 29.71 in 10.0 mi West 12.7 mph 19.6 mph N/A   Clear
11:55 AM 86.0 °F - 50.9 °F 30% 29.70 in 10.0 mi West 9.2 mph - N/A   Clear
12:15 PM 87.8 °F - 37.6 °F 17% 29.71 in 10.0 mi West 17.3 mph 24.2 mph N/A   Clear
12:35 PM 88.9 °F - 35.8 °F 15% 29.70 in 10.0 mi WNW 16.1 mph 21.9 mph N/A   Clear
1:15 PM 90.0 °F - 35.2 °F 14% 29.69 in 10.0 mi West 13.8 mph 18.4 mph N/A   Clear
1:35 PM 90.9 °F - 32.4 °F 12% 29.69 in 10.0 mi WNW 13.8 mph 19.6 mph N/A   Clear
1:55 PM 90.5 °F - 32.5 °F 13% 29.68 in 10.0 mi NW 6.9 mph 21.9 mph N/A   Clear
2:15 PM 91.0 °F - 32.0 °F 12% 29.67 in 10.0 mi WSW 8.1 mph 19.6 mph N/A   Clear
2:35 PM 90.3 °F - 30.0 °F 12% 29.66 in 10.0 mi Calm Calm - N/A   Clear
2:55 PM 91.9 °F - 32.0 °F 12% 29.65 in 10.0 mi WSW 12.7 mph 20.7 mph N/A   Clear
3:15 PM 92.7 °F - 31.8 °F 12% 29.64 in 10.0 mi WNW 15.0 mph 18.4 mph N/A   Clear
3:35 PM 92.5 °F - 32.0 °F 12% 29.64 in 10.0 mi SSW 6.9 mph - N/A   Clear
3:55 PM 91.0 °F - 30.9 °F 12% 29.63 in 10.0 mi WSW 9.2 mph - N/A   Clear
4:15 PM 92.8 °F - 31.1 °F 11% 29.62 in 10.0 mi West 12.7 mph 20.7 mph N/A   Clear
4:35 PM 92.7 °F - 27.7 °F 10% 29.62 in 10.0 mi West 6.9 mph 20.7 mph N/A   Clear
4:55 PM 92.5 °F - 26.2 °F 9% 29.62 in 10.0 mi NNW 13.8 mph 19.6 mph N/A   Clear
5:15 PM 93.0 °F - 26.6 °F 9% 29.62 in 10.0 mi WNW 17.3 mph 23.0 mph N/A   Clear
5:35 PM 92.1 °F - 26.1 °F 9% 29.63 in 10.0 mi NW 15.0 mph 23.0 mph N/A   Clear
5:55 PM 91.6 °F - 25.7 °F 9% 29.64 in 10.0 mi NW 10.4 mph - N/A   Clear
6:15 PM 91.0 °F - 26.6 °F 10% 29.64 in 10.0 mi WNW 23.0 mph 29.9 mph N/A   Clear
6:35 PM 89.4 °F - 26.4 °F 10% 29.65 in 10.0 mi WNW 25.3 mph 33.4 mph N/A   Clear
6:55 PM 87.3 °F - 25.9 °F 11% 29.66 in 10.0 mi WNW 19.6 mph 31.1 mph N/A   Clear
7:15 PM 87.1 °F - 25.7 °F 11% 29.68 in 10.0 mi WNW 18.4 mph 27.6 mph N/A   Clear
7:35 PM 86.0 °F - 24.4 °F 11% 29.69 in 10.0 mi WNW 25.3 mph 34.5 mph N/A   Clear
7:55 PM 84.0 °F - 22.6 °F 10% 29.73 in 7.0 mi WNW 24.2 mph 35.7 mph N/A   Scattered Clouds
8:15 PM 82.0 °F - 19.9 °F 10% 29.73 in 7.0 mi WNW 24.2 mph 32.2 mph N/A   Mostly Cloudy
8:55 PM 79.0 °F - 17.2 °F 10% 29.79 in 7.0 mi NW 19.6 mph 34.5 mph N/A   Overcast
9:15 PM 77.4 °F - 14.4 °F 9% 29.81 in 7.0 mi NW 15.0 mph 31.1 mph N/A   Overcast
9:35 PM 75.7 °F - 12.0 °F 9% 29.85 in 7.0 mi NW 13.8 mph 24.2 mph N/A   Overcast
11:15 PM 62.8 °F - 33.6 °F 34% 29.96 in 7.0 mi North 23.0 mph 28.8 mph N/A   Scattered Clouds
11:35 PM 61.3 °F - 33.6 °F 35% 29.98 in 10.0 mi North 15.0 mph 27.6 mph N/A   Clear
11:55 PM 60.3 °F - 32.7 °F 35% 30.00 in 10.0 mi North 21.9 mph 29.9 mph N/A   Clear